Time;durP1;ratioP1;P1;durP2;ratioP2;P2;SDS_P1;SDS_P2;PMS_P1;PMS_P2;Temp;Humidity;BMP_temperature;BMP_pressure;BME280_temperature;BME280_humidity;BME280_pressure;Samples;Min_cycle;Max_cycle;Signal;HPM_P1;HPM_P2
2022/01/23 00:00:51;;;;;;;153.95;32.08;;;1.10;99.90;;;;;;5071705;28;20066;-60
2022/01/23 00:03:19;;;;;;;74.35;28.67;;;1.10;99.90;;;;;;5071461;28;20098;-61
2022/01/23 00:05:49;;;;;;;279.38;41.05;;;1.10;99.90;;;;;;5071314;28;20067;-61
2022/01/23 00:08:20;;;;;;;96.20;31.55;;;1.10;99.90;;;;;;5071790;28;20453;-61
2022/01/23 00:10:51;;;;;;;66.72;26.35;;;1.10;99.90;;;;;;5071470;28;20044;-61
2022/01/23 00:18:35;;;;;;;63.15;26.20;;;1.10;99.90;;;;;;5071523;28;20040;-61
2022/01/23 00:21:02;;;;;;;51.90;25.98;;;1.10;99.90;;;;;;5071295;28;20416;-61
2022/01/23 00:31:39;;;;;;;59.50;28.40;;;1.20;99.90;;;;;;5053440;28;20068;-61
2022/01/23 00:34:06;;;;;;;57.85;26.75;;;1.10;99.90;;;;;;5071169;28;20118;-61
2022/01/23 00:36:35;;;;;;;56.58;28.00;;;1.10;99.90;;;;;;5053030;28;20047;-61
2022/01/23 00:39:03;;;;;;;53.42;25.80;;;1.20;99.90;;;;;;5071576;28;20098;-61
2022/01/23 00:41:30;;;;;;;54.97;26.33;;;1.20;99.90;;;;;;5053333;28;20048;-61
2022/01/23 00:43:57;;;;;;;54.25;27.13;;;1.20;99.90;;;;;;5071039;28;20485;-61
2022/01/23 00:46:32;;;;;;;50.75;26.02;;;1.20;99.90;;;;;;5070992;28;20489;-61
2022/01/23 00:51:28;;;;;;;54.95;26.42;;;1.20;99.90;;;;;;5071309;28;20036;-61
2022/01/23 00:53:57;;;;;;;56.78;27.80;;;1.20;99.90;;;;;;5071166;28;20044;-61
2022/01/23 00:56:24;;;;;;;56.55;27.73;;;1.20;99.90;;;;;;5070783;28;20048;-61
2022/01/23 00:58:52;;;;;;;53.67;27.05;;;1.20;99.90;;;;;;5053252;28;20041;-61
2022/01/23 01:01:19;;;;;;;;;;;1.20;99.90;;;;;;5071616;28;20048;-61
2022/01/23 01:03:46;;;;;;;54.40;27.90;;;1.30;99.90;;;;;;5070751;28;20015;-61
2022/01/23 01:06:14;;;;;;;51.60;26.20;;;1.30;99.90;;;;;;5052881;28;20595;-61
2022/01/23 01:08:42;;;;;;;59.42;27.88;;;1.30;99.90;;;;;;5070795;28;20032;-61
2022/01/23 01:16:56;;;;;;;47.85;25.33;;;1.20;99.90;;;;;;5052614;28;20048;-61
2022/01/23 01:33:50;;;;;;;38.17;21.08;;;1.20;99.90;;;;;;5052668;28;20527;-61
2022/01/23 01:36:37;;;;;;;42.72;21.52;;;1.30;99.90;;;;;;5070354;28;20055;-61
2022/01/23 01:39:06;;;;;;;37.27;19.70;;;1.30;99.90;;;;;;5073866;28;20040;-61
2022/01/23 01:41:37;;;;;;;36.63;19.98;;;1.30;99.90;;;;;;5074207;28;20778;-61
2022/01/23 01:44:05;;;;;;;39.95;19.95;;;1.30;99.90;;;;;;5056109;28;20455;-61
2022/01/23 01:47:07;;;;;;;38.80;18.80;;;1.30;99.90;;;;;;5018517;28;20059;-61
2022/01/23 01:49:37;;;;;;;36.95;18.58;;;1.40;99.90;;;;;;5056047;28;20068;-61
2022/01/23 01:52:07;;;;;;;35.97;18.20;;;1.40;99.90;;;;;;5056319;28;20036;-61
2022/01/23 01:54:34;;;;;;;39.10;19.05;;;1.40;99.90;;;;;;5055957;28;20127;-62
2022/01/23 01:57:10;;;;;;;35.83;17.77;;;1.40;99.90;;;;;;5055931;28;20053;-61
2022/01/23 01:59:50;;;;;;;;;;;1.30;99.90;;;;;;5056618;28;20059;-61
2022/01/23 02:08:28;;;;;;;29.58;15.02;;;1.30;99.90;;;;;;5055919;28;20055;-62
2022/01/23 02:11:06;;;;;;;29.88;15.32;;;1.40;99.90;;;;;;5072481;28;20082;-61
2022/01/23 02:13:39;;;;;;;30.75;14.45;;;1.40;99.90;;;;;;5072389;28;20117;-61
2022/01/23 02:52:45;;;;;;;37.80;17.67;;;1.40;99.90;;;;;;5055237;28;20127;-61
2022/01/23 02:55:23;;;;;;;39.53;17.38;;;1.30;99.90;;;;;;5072353;28;20044;-63
2022/01/23 02:57:55;;;;;;;32.05;16.55;;;1.30;99.90;;;;;;5054990;28;20457;-61
2022/01/23 03:00:35;;;;;;;36.10;18.20;;;1.30;99.90;;;;;;5071854;28;20142;-61
2022/01/23 03:03:09;;;;;;;38.10;19.30;;;1.30;99.90;;;;;;5072939;28;20054;-61
2022/01/23 03:09:07;;;;;;;31.48;16.33;;;1.30;99.90;;;;;;5054919;28;20078;-61
2022/01/23 03:25:06;;;;;;;39.13;19.50;;;1.30;99.90;;;;;;5072541;28;20044;-61
2022/01/23 03:32:51;;;;;;;39.42;21.05;;;1.30;99.90;;;;;;5054167;28;20044;-61
2022/01/23 03:35:20;;;;;;;42.55;21.02;;;1.40;99.90;;;;;;5053810;28;20056;-61
2022/01/23 03:37:48;;;;;;;46.88;21.27;;;1.40;99.90;;;;;;5072158;28;20044;-61
2022/01/23 03:40:16;;;;;;;41.60;20.05;;;1.40;99.90;;;;;;5070895;28;20048;-61
2022/01/23 03:42:46;;;;;;;42.17;20.25;;;1.30;99.90;;;;;;5071687;28;20036;-61
2022/01/23 03:45:46;;;;;;;44.58;22.02;;;1.30;99.90;;;;;;5053494;28;20093;-61
2022/01/23 03:50:46;;;;;;;42.35;20.42;;;1.40;99.90;;;;;;5053977;28;20167;-61
2022/01/23 03:53:21;;;;;;;35.22;17.85;;;1.30;99.90;;;;;;5070510;28;20041;-61
2022/01/23 03:55:50;;;;;;;36.60;17.23;;;1.20;99.90;;;;;;5071395;28;20036;-61
2022/01/23 03:58:17;;;;;;;31.27;14.40;;;1.20;99.90;;;;;;5053889;28;20097;-61
2022/01/23 04:00:44;;;;;;;17.85;9.10;;;1.30;99.90;;;;;;5053650;28;20044;-62
2022/01/23 04:03:12;;;;;;;20.88;11.65;;;1.30;99.90;;;;;;5053706;28;20527;-61
2022/01/23 04:05:39;;;;;;;23.23;10.80;;;1.30;99.90;;;;;;5047668;22;20137;-60
2022/01/23 04:08:06;;;;;;;22.00;9.90;;;1.30;99.90;;;;;;5011583;28;20042;-60
2022/01/23 04:10:33;;;;;;;20.42;8.88;;;1.30;99.90;;;;;;5010801;28;20499;-60
2022/01/23 04:15:52;;;;;;;19.23;9.68;;;1.40;99.90;;;;;;5010280;28;20041;-60
2022/01/23 04:21:18;;;;;;;38.05;12.10;;;1.40;99.90;;;;;;5010645;28;20042;-60
2022/01/23 04:32:14;;;;;;;42.53;18.05;;;1.20;99.90;;;;;;4990918;28;20495;-60
2022/01/23 04:45:34;;;;;;;47.25;21.73;;;1.30;99.90;;;;;;4990071;28;20125;-60
2022/01/23 05:04:42;;;;;;;42.75;20.85;;;1.30;99.90;;;;;;4991489;28;20138;-60
2022/01/23 05:07:30;;;;;;;27.67;13.40;;;1.30;99.90;;;;;;5000402;28;20081;-60
2022/01/23 05:10:20;;;;;;;28.88;14.50;;;1.40;99.90;;;;;;4986206;28;20598;-60
2022/01/23 05:13:02;;;;;;;25.13;12.77;;;1.40;99.90;;;;;;5008398;28;20514;-60
2022/01/23 05:15:29;;;;;;;124.57;25.02;;;1.40;99.90;;;;;;4995103;28;20042;-60
2022/01/23 05:17:56;;;;;;;107.63;22.95;;;1.30;99.90;;;;;;4994326;28;20046;-60
2022/01/23 05:20:26;;;;;;;91.65;25.67;;;1.20;99.90;;;;;;4994224;28;20046;-60
2022/01/23 05:22:59;;;;;;;58.83;24.00;;;1.20;99.90;;;;;;4995672;28;20491;-60
2022/01/23 05:25:29;;;;;;;72.45;26.05;;;1.10;99.90;;;;;;4994728;28;20566;-60
2022/01/23 05:27:56;;;;;;;52.28;24.40;;;1.10;99.90;;;;;;5010603;28;20125;-60
2022/01/23 05:30:23;;;;;;;54.20;23.92;;;1.10;99.90;;;;;;5010452;28;20097;-60
2022/01/23 05:32:51;;;;;;;54.28;25.98;;;1.10;99.90;;;;;;4995023;28;20403;-60
2022/01/23 05:35:20;;;;;;;52.35;25.25;;;1.20;99.90;;;;;;5009908;28;20050;-60
2022/01/23 05:37:48;;;;;;;50.25;24.50;;;1.30;99.90;;;;;;5026850;28;20042;-60
2022/01/23 05:40:24;;;;;;;54.58;25.48;;;1.30;99.90;;;;;;5010252;28;20062;-60
2022/01/23 05:42:52;;;;;;;49.38;24.38;;;1.20;99.90;;;;;;5026722;28;20182;-60
2022/01/23 05:45:20;;;;;;;49.38;23.67;;;1.20;99.90;;;;;;5009364;28;20042;-60
2022/01/23 05:48:05;;;;;;;55.80;25.95;;;1.20;99.90;;;;;;4995034;28;20058;-60
2022/01/23 05:50:50;;;;;;;50.38;23.90;;;1.20;99.90;;;;;;4995239;28;20052;-60
2022/01/23 05:53:36;;;;;;;52.45;23.98;;;1.30;99.90;;;;;;4994900;28;20061;-60
2022/01/23 05:56:21;;;;;;;40.17;20.17;;;1.30;99.90;;;;;;4993604;28;20135;-60
2022/01/23 05:59:03;;;;;;;34.08;15.98;;;1.30;99.90;;;;;;4995012;28;20050;-60
2022/01/23 06:01:34;;;;;;;26.67;14.13;;;1.30;99.90;;;;;;5009863;28;20046;-60
2022/01/23 06:04:12;;;;;;;29.73;15.35;;;1.40;99.90;;;;;;4993416;28;20050;-60
2022/01/23 06:06:49;;;;;;;22.70;11.07;;;1.30;99.90;;;;;;5009380;28;20084;-60
2022/01/23 06:09:18;;;;;;;194.38;31.33;;;1.40;99.90;;;;;;4993589;28;20043;-60
2022/01/23 06:11:45;;;;;;;49.30;22.25;;;1.30;99.90;;;;;;5009699;28;20038;-60
2022/01/23 06:14:13;;;;;;;48.20;22.48;;;1.30;99.90;;;;;;4994658;28;20042;-60
2022/01/23 06:16:40;;;;;;;51.67;24.05;;;1.20;99.90;;;;;;5009134;28;20056;-60
2022/01/23 06:19:25;;;;;;;51.13;23.50;;;1.20;99.90;;;;;;4994187;28;20057;-60
2022/01/23 06:22:25;;;;;;;53.40;23.67;;;1.20;99.90;;;;;;4994859;28;20097;-60
2022/01/23 06:25:08;;;;;;;50.03;23.15;;;1.10;99.90;;;;;;4992939;28;20069;-60
2022/01/23 06:27:43;;;;;;;58.00;26.08;;;1.20;99.90;;;;;;4992840;28;20053;-60
2022/01/23 06:30:10;;;;;;;60.38;26.80;;;1.20;99.90;;;;;;5009322;28;20070;-60
2022/01/23 06:32:37;;;;;;;;;;;1.20;99.90;;;;;;5009698;28;20049;-60
2022/01/23 06:35:05;;;;;;;49.67;21.73;;;1.20;99.90;;;;;;4992749;28;19922;-60
2022/01/23 06:37:32;;;;;;;51.42;22.42;;;1.20;99.90;;;;;;4993739;28;20097;-60
2022/01/23 06:39:59;;;;;;;44.33;20.23;;;1.20;99.90;;;;;;4992821;28;20109;-60
2022/01/23 06:42:51;;;;;;;40.85;20.25;;;1.30;99.90;;;;;;4993988;28;20526;-60
2022/01/23 06:45:41;;;;;;;73.47;26.52;;;1.20;99.90;;;;;;5001217;28;20048;-60
2022/01/23 06:48:08;;;;;;;47.50;21.13;;;1.20;99.90;;;;;;5011673;28;20093;-60
2022/01/23 06:50:35;;;;;;;50.25;22.63;;;1.20;99.90;;;;;;5012203;28;20046;-60
2022/01/23 06:53:02;;;;;;;48.85;21.90;;;1.20;99.90;;;;;;5028002;28;20069;-60
2022/01/23 06:55:29;;;;;;;87.60;23.48;;;1.20;99.90;;;;;;5011140;28;20046;-60
2022/01/23 06:57:58;;;;;;;57.47;23.20;;;1.20;99.90;;;;;;5028239;28;20648;-60
2022/01/23 07:00:25;;;;;;;57.15;25.80;;;1.20;99.90;;;;;;5011196;28;20076;-60
2022/01/23 07:03:01;;;;;;;67.43;25.00;;;1.10;99.90;;;;;;5012966;28;20050;-60
2022/01/23 07:05:54;;;;;;;61.03;25.95;;;1.20;99.90;;;;;;5002739;28;20041;-60
2022/01/23 07:08:48;;;;;;;70.30;25.98;;;1.20;99.90;;;;;;5027500;28;20042;-60
2022/01/23 07:11:29;;;;;;;62.00;27.10;;;1.20;99.90;;;;;;5012197;28;20125;-60
2022/01/23 07:14:15;;;;;;;61.72;28.17;;;1.30;99.90;;;;;;5010288;28;20537;-60
2022/01/23 07:17:11;;;;;;;61.33;28.42;;;1.20;99.90;;;;;;4976099;28;20443;-59
2022/01/23 07:19:47;;;;;;;62.33;27.88;;;1.30;99.90;;;;;;5011523;28;20057;-60
2022/01/23 07:22:19;;;;;;;56.83;27.13;;;1.30;99.90;;;;;;5011346;28;20430;-60
2022/01/23 07:24:46;;;;;;;52.47;24.83;;;1.40;99.90;;;;;;5011538;28;20065;-60
2022/01/23 07:27:18;;;;;;;60.55;28.25;;;1.40;99.90;;;;;;5027580;28;20491;-60
2022/01/23 07:29:47;;;;;;;67.18;28.25;;;1.50;99.90;;;;;;5011549;28;20108;-60
2022/01/23 07:32:14;;;;;;;69.90;29.98;;;1.50;99.90;;;;;;5011413;28;20064;-60
2022/01/23 07:34:41;;;;;;;63.35;27.88;;;1.60;99.90;;;;;;5010908;28;20046;-60
2022/01/23 07:37:13;;;;;;;76.20;30.23;;;1.60;99.90;;;;;;5010729;28;20100;-60
2022/01/23 07:39:49;;;;;;;60.20;25.02;;;1.60;99.90;;;;;;5011273;28;20073;-60
2022/01/23 07:42:23;;;;;;;77.70;33.20;;;1.60;99.90;;;;;;5011040;28;20088;-60
2022/01/23 07:44:59;;;;;;;72.88;31.15;;;1.60;99.90;;;;;;5012485;28;20082;-60
2022/01/23 07:47:48;;;;;;;57.92;28.17;;;1.60;99.90;;;;;;5011834;28;20125;-60
2022/01/23 07:50:37;;;;;;;68.70;29.70;;;1.70;99.90;;;;;;5014014;28;20128;-60
2022/01/23 07:53:10;;;;;;;75.15;28.40;;;1.80;99.90;;;;;;5010200;28;20037;-60
2022/01/23 07:55:46;;;;;;;223.70;36.33;;;1.80;99.90;;;;;;5009704;28;20042;-60
2022/01/23 07:58:31;;;;;;;61.85;27.63;;;1.80;99.90;;;;;;5010366;28;20053;-60
2022/01/23 08:01:07;;;;;;;67.90;26.42;;;1.80;99.90;;;;;;5010514;28;20037;-60
2022/01/23 08:03:54;;;;;;;65.80;31.10;;;1.90;99.90;;;;;;4992253;28;20507;-59
2022/01/23 08:06:28;;;;;;;67.10;30.67;;;1.90;99.90;;;;;;4990573;28;20074;-60
2022/01/23 08:09:24;;;;;;;61.78;28.85;;;2.00;99.90;;;;;;4992471;28;20045;-60
2022/01/23 08:11:51;;;;;;;65.97;29.58;;;2.00;99.90;;;;;;4992350;28;20070;-60
2022/01/23 08:14:18;;;;;;;62.78;29.30;;;1.90;99.90;;;;;;5006428;28;20458;-60
2022/01/23 08:16:44;;;;;;;69.45;28.25;;;2.00;99.90;;;;;;5011696;28;20088;-60
2022/01/23 08:19:11;;;;;;;65.53;27.92;;;2.10;99.90;;;;;;5012152;28;20113;-60
2022/01/23 08:21:38;;;;;;;57.03;27.50;;;2.20;99.90;;;;;;5011757;28;20056;-60
2022/01/23 08:24:05;;;;;;;53.90;26.10;;;2.30;99.90;;;;;;5011917;28;20042;-60
2022/01/23 08:26:32;;;;;;;60.38;28.35;;;2.30;99.90;;;;;;5011271;28;20038;-60
2022/01/23 08:29:00;;;;;;;65.22;29.83;;;2.30;99.90;;;;;;5011818;28;20042;-60
2022/01/23 08:31:27;;;;;;;63.08;28.38;;;2.40;99.90;;;;;;5011657;28;20100;-60
2022/01/23 08:33:54;;;;;;;59.00;28.58;;;2.40;99.90;;;;;;5011917;28;20045;-60
2022/01/23 08:36:21;;;;;;;60.83;27.92;;;2.40;99.90;;;;;;5011307;28;20133;-59
2022/01/23 08:38:48;;;;;;;58.05;27.15;;;2.50;99.90;;;;;;5011812;28;20042;-60
2022/01/23 08:43:48;;;;;;;59.45;26.60;;;2.40;99.90;;;;;;5011584;28;20045;-60
2022/01/23 08:46:16;;;;;;;66.68;27.48;;;2.50;99.90;;;;;;5010675;28;20113;-60
2022/01/23 08:48:44;;;;;;;56.60;25.95;;;2.60;99.90;;;;;;5014145;28;20116;-60
2022/01/23 08:51:11;;;;;;;;;;;2.60;99.90;;;;;;5015560;28;20046;-60
2022/01/23 08:53:39;;;;;;;49.65;24.75;;;2.70;99.90;;;;;;5014938;28;19921;-60
2022/01/23 08:56:06;;;;;;;50.92;24.35;;;2.70;99.90;;;;;;5014955;28;20046;-60
2022/01/23 08:58:33;;;;;;;;;;;2.70;99.90;;;;;;5016010;28;20092;-60
2022/01/23 09:01:00;;;;;;;59.33;26.13;;;2.80;99.90;;;;;;5015041;28;19979;-60
2022/01/23 09:03:27;;;;;;;;;;;2.80;99.90;;;;;;5015536;28;20128;-60
2022/01/23 09:05:54;;;;;;;57.58;24.17;;;2.90;99.90;;;;;;5014140;28;19925;-60
2022/01/23 09:08:22;;;;;;;53.78;26.55;;;3.00;99.90;;;;;;5015241;28;20050;-60
2022/01/23 09:10:54;;;;;;;60.50;29.52;;;3.10;99.90;;;;;;5015332;28;20038;-60
2022/01/23 09:14:23;;;;;;;57.30;28.33;;;3.10;99.90;;;;;;5015550;28;20057;-60
2022/01/23 09:16:18;;;;;;;59.10;25.60;;;3.20;99.90;;;;;;5009941;28;20085;-60
2022/01/23 09:18:46;;;;;;;50.63;24.25;;;3.30;99.90;;;;;;5015411;28;20045;-60
2022/01/23 09:21:13;;;;;;;50.67;24.25;;;3.30;99.90;;;;;;5015109;28;20034;-60
2022/01/23 09:23:41;;;;;;;60.92;28.30;;;3.40;99.90;;;;;;5015153;28;20053;-60
2022/01/23 09:26:13;;;;;;;66.28;26.15;;;3.40;99.90;;;;;;5014334;28;20104;-60
2022/01/23 09:28:43;;;;;;;53.97;25.95;;;3.30;99.90;;;;;;5015008;28;20046;-60
2022/01/23 09:31:12;;;;;;;59.13;26.60;;;3.40;99.90;;;;;;5014991;28;20081;-60
2022/01/23 09:33:39;;;;;;;51.75;24.98;;;3.50;99.90;;;;;;5014828;28;20117;-60
2022/01/23 09:36:06;;;;;;;43.20;20.95;;;3.60;99.90;;;;;;5014187;28;20054;-60
2022/01/23 09:38:33;;;;;;;46.25;22.75;;;3.70;99.90;;;;;;5014837;28;20045;-60
2022/01/23 09:41:01;;;;;;;58.40;28.52;;;3.90;99.90;;;;;;5014914;28;20518;-60
2022/01/23 09:43:30;;;;;;;54.38;28.23;;;4.00;99.90;;;;;;5014490;28;20061;-60
2022/01/23 09:45:56;;;;;;;55.25;28.10;;;4.20;99.90;;;;;;5013846;28;20050;-60
2022/01/23 09:48:24;;;;;;;48.42;25.90;;;4.40;99.90;;;;;;5014572;28;20041;-60
2022/01/23 09:50:53;;;;;;;59.97;27.27;;;4.60;99.90;;;;;;5014442;28;20052;-60
2022/01/23 09:53:22;;;;;;;56.70;26.88;;;4.70;99.90;;;;;;5014408;28;20051;-60
2022/01/23 09:55:53;;;;;;;50.03;24.98;;;4.80;99.90;;;;;;5013909;28;20072;-60
2022/01/23 09:58:24;;;;;;;51.92;24.65;;;4.90;99.90;;;;;;5013983;28;20042;-61
2022/01/23 10:00:52;;;;;;;56.72;25.63;;;4.70;99.90;;;;;;5014491;28;20084;-61
2022/01/23 10:03:19;;;;;;;56.85;26.48;;;4.50;99.90;;;;;;5014355;28;20049;-61
2022/01/23 10:05:55;;;;;;;53.92;25.42;;;4.40;99.90;;;;;;5058221;22;20048;-61
2022/01/23 10:08:23;;;;;;;56.25;26.45;;;4.30;99.90;;;;;;5065823;28;20473;-62
2022/01/23 10:10:52;;;;;;;61.40;24.60;;;4.10;99.90;;;;;;5074129;28;20044;-61
2022/01/23 10:13:24;;;;;;;52.28;24.42;;;4.10;99.90;;;;;;5071185;28;20044;-62
2022/01/23 10:15:51;;;;;;;46.80;25.42;;;4.10;99.90;;;;;;5038114;28;20037;-62
2022/01/23 10:18:19;;;;;;;45.38;24.52;;;4.20;99.90;;;;;;5032837;28;20084;-62
2022/01/23 10:20:46;;;;;;;57.83;27.45;;;4.20;99.90;;;;;;5033650;28;20033;-62
2022/01/23 10:23:14;;;;;;;68.78;28.20;;;4.30;99.90;;;;;;5033228;28;20045;-62
2022/01/23 10:25:43;;;;;;;47.10;25.05;;;4.40;99.90;;;;;;5033510;28;20045;-62
2022/01/23 10:28:17;;;;;;;45.05;24.45;;;4.50;99.90;;;;;;5033575;28;20045;-62
2022/01/23 10:30:49;;;;;;;54.08;24.55;;;4.60;99.90;;;;;;5033590;28;20049;-62
2022/01/23 10:33:21;;;;;;;50.60;24.15;;;4.60;99.90;;;;;;5033561;28;20383;-62
2022/01/23 10:35:52;;;;;;;53.85;25.63;;;4.60;99.90;;;;;;5032888;28;20096;-62
2022/01/23 10:38:20;;;;;;;47.47;23.90;;;4.70;99.90;;;;;;5033473;28;20116;-62
2022/01/23 10:40:56;;;;;;;48.80;24.70;;;4.60;99.90;;;;;;5033389;28;20390;-62
2022/01/23 10:48:43;;;;;;;62.50;26.63;;;4.40;99.90;;;;;;5032099;28;20045;-62
2022/01/23 10:51:19;;;;;;;63.75;27.52;;;4.40;99.90;;;;;;5032892;28;20049;-62
2022/01/23 10:53:59;;;;;;;59.05;29.05;;;4.40;99.90;;;;;;5033116;28;20087;-62
2022/01/23 10:56:31;;;;;;;46.10;24.25;;;4.40;99.90;;;;;;5032506;28;20103;-62
2022/01/23 10:59:07;;;;;;;52.65;25.00;;;4.50;99.90;;;;;;5033075;28;20065;-62
2022/01/23 11:01:35;;;;;;;55.40;25.92;;;4.60;99.90;;;;;;5032700;28;20434;-62
2022/01/23 11:04:08;;;;;;;62.30;27.48;;;4.90;99.90;;;;;;5032823;28;20037;-62
2022/01/23 11:06:54;;;;;;;50.95;23.27;;;5.10;99.90;;;;;;5032292;28;20045;-62
2022/01/23 11:09:26;;;;;;;47.72;23.80;;;5.30;99.90;;;;;;5032845;28;20037;-62
2022/01/23 11:12:00;;;;;;;52.50;25.50;;;5.40;99.90;;;;;;5032405;28;20041;-62
2022/01/23 11:17:24;;;;;;;58.78;28.75;;;5.30;99.90;;;;;;5032070;28;20049;-62
2022/01/23 11:19:57;;;;;;;56.67;28.13;;;5.30;99.90;;;;;;5032743;28;20053;-62
2022/01/23 11:22:30;;;;;;;58.35;27.80;;;5.30;99.90;;;;;;5032578;28;20288;-62
2022/01/23 11:25:03;;;;;;;61.80;30.85;;;5.40;99.90;;;;;;5032265;28;20494;-62
2022/01/23 11:27:35;;;;;;;67.43;30.35;;;5.30;99.90;;;;;;5032091;28;20092;-62
2022/01/23 11:30:09;;;;;;;60.85;29.17;;;5.20;99.90;;;;;;5032421;28;20076;-62
2022/01/23 11:32:40;;;;;;;59.42;28.33;;;5.20;99.90;;;;;;5032165;28;20050;-62
2022/01/23 11:35:12;;;;;;;61.35;30.33;;;5.20;99.90;;;;;;5032076;28;20061;-62
2022/01/23 11:37:50;;;;;;;62.88;28.42;;;5.30;99.90;;;;;;5014699;28;20046;-62
2022/01/23 11:50:36;;;;;;;67.50;29.38;;;5.40;99.90;;;;;;5032054;28;20152;-62
2022/01/23 11:54:49;;;;;;;63.33;29.90;;;5.30;99.90;;;;;;5031952;28;20449;-62
2022/01/23 11:57:39;;;;;;;64.40;29.20;;;5.30;99.90;;;;;;5031835;28;20065;-61
2022/01/23 12:00:19;;;;;;;64.53;29.70;;;5.40;99.90;;;;;;5031849;28;20124;-62
2022/01/23 12:03:07;;;;;;;66.57;30.45;;;5.50;99.90;;;;;;5032134;28;20050;-62
2022/01/23 12:05:37;;;;;;;60.50;29.08;;;5.40;99.90;;;;;;5031239;28;20052;-62
2022/01/23 12:08:23;;;;;;;55.83;27.98;;;5.30;99.90;;;;;;5031909;28;20486;-62
2022/01/23 12:11:35;;;;;;;63.80;30.27;;;5.30;99.90;;;;;;5031670;28;20045;-62
2022/01/23 12:17:03;;;;;;;54.17;27.65;;;5.30;99.90;;;;;;5031036;28;20092;-62
2022/01/23 12:19:37;;;;;;;63.00;28.50;;;5.40;99.90;;;;;;5031514;28;20125;-62
2022/01/23 12:22:35;;;;;;;60.75;29.02;;;5.40;99.90;;;;;;5031432;28;20576;-62
2022/01/23 12:25:07;;;;;;;59.30;27.20;;;5.30;99.90;;;;;;5031440;28;20107;-62
2022/01/23 12:27:34;;;;;;;65.22;29.08;;;5.40;99.90;;;;;;5031147;28;20124;-62
2022/01/23 12:30:31;;;;;;;55.75;27.17;;;5.50;99.90;;;;;;5031474;28;20095;-62
2022/01/23 12:33:39;;;;;;;63.05;28.45;;;5.50;99.90;;;;;;5031565;28;20041;-61
2022/01/23 12:36:13;;;;;;;57.92;27.77;;;5.40;99.90;;;;;;5019656;28;20176;-62
2022/01/23 12:38:46;;;;;;;80.90;30.40;;;5.40;99.90;;;;;;5031383;28;20045;-61
2022/01/23 12:41:16;;;;;;;61.25;29.15;;;5.30;99.90;;;;;;5031293;28;20046;-62
2022/01/23 12:43:43;;;;;;;63.30;27.70;;;5.30;99.90;;;;;;5031228;28;20050;-62
2022/01/23 12:46:12;;;;;;;54.10;26.85;;;5.30;99.90;;;;;;5030648;28;20057;-62
2022/01/23 12:48:45;;;;;;;58.88;26.27;;;5.40;99.90;;;;;;5031204;28;20092;-62
2022/01/23 12:51:12;;;;;;;61.50;29.00;;;5.40;99.90;;;;;;5031201;28;20041;-62
2022/01/23 12:53:45;;;;;;;60.15;28.35;;;5.40;99.90;;;;;;5031300;28;20037;-62
2022/01/23 12:56:29;;;;;;;59.75;27.30;;;5.30;99.90;;;;;;5030470;28;20521;-62
2022/01/23 12:59:07;;;;;;;57.40;27.60;;;5.30;99.90;;;;;;5031089;28;20053;-62
2022/01/23 13:01:37;;;;;;;64.15;28.77;;;5.30;99.90;;;;;;5031104;28;20489;-62
2022/01/23 13:04:06;;;;;;;54.72;24.80;;;5.30;99.90;;;;;;5031159;28;20132;-61
2022/01/23 13:06:44;;;;;;;52.83;23.83;;;5.30;99.90;;;;;;5030537;28;20041;-62
2022/01/23 13:09:48;;;;;;;52.63;25.27;;;5.30;99.90;;;;;;5031212;28;20095;-62
2022/01/23 13:27:23;;;;;;;57.83;25.98;;;5.10;99.90;;;;;;5030531;28;20045;-62
2022/01/23 13:30:01;;;;;;;47.28;22.05;;;4.90;99.90;;;;;;5030981;28;20258;-62
2022/01/23 13:35:08;;;;;;;44.60;21.63;;;4.80;99.90;;;;;;5033664;28;20549;-62
2022/01/23 13:37:39;;;;;;;54.70;22.92;;;4.80;99.90;;;;;;5034388;28;20506;-62
2022/01/23 13:40:20;;;;;;;43.38;21.65;;;4.80;99.90;;;;;;5034539;28;20049;-62
2022/01/23 14:02:26;;;;;;;42.83;21.08;;;4.60;99.90;;;;;;5034257;28;20041;-62
2022/01/23 14:05:04;;;;;;;43.45;21.05;;;4.60;99.90;;;;;;5033772;28;20041;-62
2022/01/23 14:07:32;;;;;;;46.47;21.55;;;4.60;99.90;;;;;;5033914;28;20077;-62
2022/01/23 14:10:17;;;;;;;53.25;21.45;;;4.60;99.90;;;;;;5033879;28;20479;-62
2022/01/23 14:12:47;;;;;;;41.80;19.02;;;4.60;99.90;;;;;;5034105;28;20072;-62
2022/01/23 14:15:25;;;;;;;36.63;16.23;;;4.60;99.90;;;;;;5033604;28;20108;-62
2022/01/23 14:17:59;;;;;;;38.35;18.73;;;4.50;99.90;;;;;;5033715;28;20045;-62
2022/01/23 14:20:27;;;;;;;42.28;18.48;;;4.40;99.90;;;;;;5033714;28;20049;-62
2022/01/23 14:22:55;;;;;;;39.00;19.23;;;4.30;99.90;;;;;;5033877;28;20530;-62
2022/01/23 14:25:26;;;;;;;34.83;17.92;;;4.30;99.90;;;;;;5033191;28;20053;-62
2022/01/23 14:28:05;;;;;;;41.80;23.67;;;4.30;99.90;;;;;;5033279;28;20064;-62
2022/01/23 14:30:33;;;;;;;54.60;30.23;;;4.30;99.90;;;;;;5033588;28;20452;-62
2022/01/23 14:33:12;;;;;;;60.80;32.75;;;4.20;99.90;;;;;;5033432;28;20049;-62
2022/01/23 14:35:39;;;;;;;47.20;23.45;;;4.20;99.90;;;;;;5032951;28;20516;-62
2022/01/23 14:38:12;;;;;;;49.65;24.25;;;4.20;99.90;;;;;;5033477;28;20041;-62
2022/01/23 14:41:01;;;;;;;47.25;21.27;;;4.20;99.90;;;;;;5033583;28;20069;-62
2022/01/23 14:43:40;;;;;;;38.45;18.92;;;4.10;99.90;;;;;;5032906;28;20111;-62
2022/01/23 14:46:09;;;;;;;48.88;22.52;;;4.20;99.90;;;;;;5013782;28;20453;-62
2022/01/23 14:48:49;;;;;;;65.85;28.15;;;4.10;99.90;;;;;;5033155;28;20132;-62
2022/01/23 14:51:23;;;;;;;31.30;14.93;;;4.10;99.90;;;;;;5033262;28;20116;-62
2022/01/23 14:53:51;;;;;;;31.25;14.73;;;4.00;99.90;;;;;;5033047;28;20046;-62
2022/01/23 14:56:20;;;;;;;42.13;17.67;;;4.00;99.90;;;;;;5032682;28;20045;-62
2022/01/23 14:58:49;;;;;;;44.83;16.73;;;3.90;99.90;;;;;;5033124;28;20064;-62
2022/01/23 15:01:17;;;;;;;34.72;15.48;;;3.90;99.90;;;;;;5033261;28;20077;-63
2022/01/23 15:03:52;;;;;;;36.10;15.70;;;3.90;99.90;;;;;;5032959;28;20052;-62
2022/01/23 15:06:29;;;;;;;38.83;17.40;;;3.80;99.90;;;;;;5031901;28;20054;-62
2022/01/23 15:09:08;;;;;;;35.80;17.02;;;3.70;99.90;;;;;;5032760;28;20073;-62
2022/01/23 15:11:35;;;;;;;38.42;19.52;;;3.70;99.90;;;;;;5032610;28;20034;-62
2022/01/23 15:14:05;;;;;;;44.00;20.10;;;3.60;99.90;;;;;;5032624;28;20486;-62
2022/01/23 15:16:33;;;;;;;51.92;18.80;;;3.50;99.90;;;;;;5031862;28;20041;-62
2022/01/23 15:19:00;;;;;;;44.22;20.60;;;3.50;99.90;;;;;;5032480;28;20457;-62
2022/01/23 15:21:27;;;;;;;47.15;19.88;;;3.40;99.90;;;;;;5032855;28;20057;-62
2022/01/23 15:23:56;;;;;;;44.33;19.50;;;3.40;99.90;;;;;;5032537;28;20095;-62
2022/01/23 15:26:25;;;;;;;42.13;19.60;;;3.30;99.90;;;;;;5031872;28;20556;-62
2022/01/23 15:28:54;;;;;;;39.20;19.55;;;3.30;99.90;;;;;;5032298;28;20076;-62
2022/01/23 15:31:22;;;;;;;38.03;18.45;;;3.30;99.90;;;;;;5032070;28;20053;-62
2022/01/23 15:33:49;;;;;;;40.53;18.48;;;3.30;99.90;;;;;;5032328;28;20060;-62
2022/01/23 15:36:17;;;;;;;36.65;17.38;;;3.30;99.90;;;;;;5031855;28;20118;-62
2022/01/23 15:38:44;;;;;;;56.50;24.88;;;3.30;99.90;;;;;;5032231;28;20103;-62
2022/01/23 15:41:12;;;;;;;42.45;19.90;;;3.20;99.90;;;;;;5032181;28;20103;-62
2022/01/23 15:43:39;;;;;;;42.25;20.88;;;3.20;99.90;;;;;;5032021;28;20103;-62
2022/01/23 15:46:06;;;;;;;44.88;20.55;;;3.10;99.90;;;;;;5031851;28;20046;-62
2022/01/23 15:48:33;;;;;;;49.28;21.98;;;3.10;99.90;;;;;;5031986;28;20042;-62
2022/01/23 15:51:01;;;;;;;40.22;18.73;;;3.00;99.90;;;;;;5040626;28;20230;-62
2022/01/23 15:53:28;;;;;;;56.92;24.75;;;3.00;99.90;;;;;;5031816;28;20562;-62
2022/01/23 15:55:55;;;;;;;;;;;3.00;99.90;;;;;;5031697;28;20509;-62
2022/01/23 15:58:22;;;;;;;67.90;33.20;;;2.90;99.90;;;;;;5031810;28;19921;-62
2022/01/23 16:00:50;;;;;;;66.50;32.80;;;2.80;99.90;;;;;;5049706;28;20045;-62
2022/01/23 16:03:16;;;;;;;;;;;2.70;99.90;;;;;;5051995;28;20048;-61
2022/01/23 16:06:09;;;;;;;47.13;21.52;;;2.70;99.90;;;;;;5092146;22;20045;-61
2022/01/23 16:08:51;;;;;;;47.60;22.90;;;2.60;99.90;;;;;;5069948;28;20062;-61
2022/01/23 16:11:17;;;;;;;;;;;2.50;99.90;;;;;;5109241;28;20043;-61
2022/01/23 16:13:45;;;;;;;83.60;33.42;;;2.50;99.90;;;;;;5110786;28;20014;-60
2022/01/23 16:16:12;;;;;;;68.30;30.52;;;2.40;99.90;;;;;;5110174;28;20067;-60
2022/01/23 16:18:39;;;;;;;56.10;25.20;;;2.40;99.90;;;;;;5110526;28;20156;-61
2022/01/23 16:21:07;;;;;;;47.83;22.98;;;2.30;99.90;;;;;;5110847;28;20075;-61
2022/01/23 16:23:34;;;;;;;;;;;2.30;99.90;;;;;;5108493;28;20040;-61
2022/01/23 16:26:11;;;;;;;46.70;21.23;;;2.20;99.90;;;;;;5105118;28;19928;-61
2022/01/23 16:28:38;;;;;;;50.38;24.05;;;2.00;99.90;;;;;;5105920;28;20057;-61
2022/01/23 16:31:07;;;;;;;58.05;26.17;;;1.90;99.90;;;;;;5110769;28;20377;-61
2022/01/23 16:33:33;;;;;;;62.38;30.67;;;1.80;99.90;;;;;;5110635;28;20070;-61
2022/01/23 16:36:01;;;;;;;77.25;36.75;;;1.80;99.90;;;;;;5110198;28;20434;-60